sensor_id;sensor_type;location;lat;lon;timestamp;P1;durP1;ratioP1;P2;durP2;ratioP2
23001;SDS011;11667;51.706;4.856;2023-05-20T00:01:04;7.30;;;4.00;;
23001;SDS011;11667;51.706;4.856;2023-05-20T00:03:34;8.33;;;4.40;;
23001;SDS011;11667;51.706;4.856;2023-05-20T00:06:03;7.83;;;4.28;;
23001;SDS011;11667;51.706;4.856;2023-05-20T00:08:33;7.45;;;4.10;;
23001;SDS011;11667;51.706;4.856;2023-05-20T00:11:02;8.60;;;3.90;;
23001;SDS011;11667;51.706;4.856;2023-05-20T00:13:32;8.78;;;4.10;;
23001;SDS011;11667;51.706;4.856;2023-05-20T00:16:02;6.08;;;4.00;;
23001;SDS011;11667;51.706;4.856;2023-05-20T00:18:33;7.78;;;4.00;;
23001;SDS011;11667;51.706;4.856;2023-05-20T00:21:02;10.10;;;4.65;;
23001;SDS011;11667;51.706;4.856;2023-05-20T00:23:32;8.03;;;4.33;;
23001;SDS011;11667;51.706;4.856;2023-05-20T00:26:01;8.70;;;4.70;;
23001;SDS011;11667;51.706;4.856;2023-05-20T00:28:31;7.80;;;4.40;;
23001;SDS011;11667;51.706;4.856;2023-05-20T00:31:00;9.00;;;4.47;;
23001;SDS011;11667;51.706;4.856;2023-05-20T00:33:30;7.80;;;4.30;;
23001;SDS011;11667;51.706;4.856;2023-05-20T00:35:59;9.20;;;4.20;;
23001;SDS011;11667;51.706;4.856;2023-05-20T00:38:29;7.12;;;4.10;;
23001;SDS011;11667;51.706;4.856;2023-05-20T00:40:59;8.20;;;4.37;;
23001;SDS011;11667;51.706;4.856;2023-05-20T00:43:29;11.80;;;4.55;;
23001;SDS011;11667;51.706;4.856;2023-05-20T00:45:59;6.78;;;4.08;;
23001;SDS011;11667;51.706;4.856;2023-05-20T00:48:29;9.80;;;4.35;;
23001;SDS011;11667;51.706;4.856;2023-05-20T00:51:00;7.85;;;4.37;;
23001;SDS011;11667;51.706;4.856;2023-05-20T00:53:31;8.50;;;4.20;;
23001;SDS011;11667;51.706;4.856;2023-05-20T00:56:03;8.68;;;4.37;;
23001;SDS011;11667;51.706;4.856;2023-05-20T00:58:33;8.50;;;4.60;;
23001;SDS011;11667;51.706;4.856;2023-05-20T01:01:06;8.60;;;4.37;;
23001;SDS011;11667;51.706;4.856;2023-05-20T01:03:36;9.53;;;4.33;;
23001;SDS011;11667;51.706;4.856;2023-05-20T01:06:06;9.05;;;4.60;;
23001;SDS011;11667;51.706;4.856;2023-05-20T01:08:35;7.20;;;4.50;;
23001;SDS011;11667;51.706;4.856;2023-05-20T01:11:10;6.87;;;4.28;;
23001;SDS011;11667;51.706;4.856;2023-05-20T01:13:47;8.08;;;4.08;;
23001;SDS011;11667;51.706;4.856;2023-05-20T01:16:19;12.60;;;4.85;;
23001;SDS011;11667;51.706;4.856;2023-05-20T01:18:50;7.72;;;4.33;;
23001;SDS011;11667;51.706;4.856;2023-05-20T01:21:22;8.53;;;4.22;;
23001;SDS011;11667;51.706;4.856;2023-05-20T01:23:52;8.75;;;4.50;;
23001;SDS011;11667;51.706;4.856;2023-05-20T01:26:21;7.62;;;4.42;;
23001;SDS011;11667;51.706;4.856;2023-05-20T01:28:52;8.25;;;4.60;;
23001;SDS011;11667;51.706;4.856;2023-05-20T01:31:24;8.63;;;4.20;;
23001;SDS011;11667;51.706;4.856;2023-05-20T01:33:55;9.08;;;4.85;;
23001;SDS011;11667;51.706;4.856;2023-05-20T01:36:25;9.23;;;4.53;;
23001;SDS011;11667;51.706;4.856;2023-05-20T01:38:56;8.95;;;4.15;;
23001;SDS011;11667;51.706;4.856;2023-05-20T01:41:26;6.87;;;4.30;;
23001;SDS011;11667;51.706;4.856;2023-05-20T01:43:57;11.15;;;4.45;;
23001;SDS011;11667;51.706;4.856;2023-05-20T01:46:31;8.43;;;4.40;;
23001;SDS011;11667;51.706;4.856;2023-05-20T01:49:01;6.35;;;3.92;;
23001;SDS011;11667;51.706;4.856;2023-05-20T01:51:30;9.13;;;4.42;;
23001;SDS011;11667;51.706;4.856;2023-05-20T01:54:02;8.88;;;4.45;;
23001;SDS011;11667;51.706;4.856;2023-05-20T01:56:31;9.13;;;4.17;;
23001;SDS011;11667;51.706;4.856;2023-05-20T01:59:01;8.95;;;4.50;;
23001;SDS011;11667;51.706;4.856;2023-05-20T02:01:30;10.30;;;4.60;;
23001;SDS011;11667;51.706;4.856;2023-05-20T02:03:59;9.75;;;4.97;;
23001;SDS011;11667;51.706;4.856;2023-05-20T02:06:29;7.03;;;4.20;;
23001;SDS011;11667;51.706;4.856;2023-05-20T02:08:58;12.55;;;4.58;;
23001;SDS011;11667;51.706;4.856;2023-05-20T02:11:28;8.55;;;4.50;;
23001;SDS011;11667;51.706;4.856;2023-05-20T02:13:58;7.28;;;4.58;;
23001;SDS011;11667;51.706;4.856;2023-05-20T02:16:28;8.85;;;4.50;;
23001;SDS011;11667;51.706;4.856;2023-05-20T02:18:57;8.35;;;4.40;;
23001;SDS011;11667;51.706;4.856;2023-05-20T02:21:28;7.65;;;4.12;;
23001;SDS011;11667;51.706;4.856;2023-05-20T02:23:58;10.72;;;4.60;;
23001;SDS011;11667;51.706;4.856;2023-05-20T02:26:27;9.50;;;5.42;;
23001;SDS011;11667;51.706;4.856;2023-05-20T02:28:57;8.10;;;4.62;;
23001;SDS011;11667;51.706;4.856;2023-05-20T02:31:27;7.87;;;4.85;;
23001;SDS011;11667;51.706;4.856;2023-05-20T02:33:56;12.00;;;5.05;;
23001;SDS011;11667;51.706;4.856;2023-05-20T02:36:25;11.25;;;5.42;;
23001;SDS011;11667;51.706;4.856;2023-05-20T02:38:55;9.18;;;4.60;;
23001;SDS011;11667;51.706;4.856;2023-05-20T02:41:24;9.08;;;4.55;;
23001;SDS011;11667;51.706;4.856;2023-05-20T02:43:54;10.82;;;5.12;;
23001;SDS011;11667;51.706;4.856;2023-05-20T02:46:23;9.95;;;4.87;;
23001;SDS011;11667;51.706;4.856;2023-05-20T02:48:53;10.30;;;4.87;;
23001;SDS011;11667;51.706;4.856;2023-05-20T02:51:22;12.05;;;4.80;;
23001;SDS011;11667;51.706;4.856;2023-05-20T02:53:52;8.55;;;4.65;;
23001;SDS011;11667;51.706;4.856;2023-05-20T02:56:22;10.98;;;5.17;;
23001;SDS011;11667;51.706;4.856;2023-05-20T02:58:52;9.55;;;4.95;;
23001;SDS011;11667;51.706;4.856;2023-05-20T03:01:22;10.05;;;5.12;;
23001;SDS011;11667;51.706;4.856;2023-05-20T03:03:52;8.65;;;4.70;;
23001;SDS011;11667;51.706;4.856;2023-05-20T03:06:24;9.10;;;4.97;;
23001;SDS011;11667;51.706;4.856;2023-05-20T03:08:54;10.98;;;4.72;;
23001;SDS011;11667;51.706;4.856;2023-05-20T03:11:23;9.65;;;4.87;;
23001;SDS011;11667;51.706;4.856;2023-05-20T03:13:53;10.98;;;5.08;;
23001;SDS011;11667;51.706;4.856;2023-05-20T03:16:23;10.38;;;5.25;;
23001;SDS011;11667;51.706;4.856;2023-05-20T03:18:54;12.78;;;5.50;;
23001;SDS011;11667;51.706;4.856;2023-05-20T03:21:24;8.70;;;4.95;;
23001;SDS011;11667;51.706;4.856;2023-05-20T03:23:53;10.75;;;5.33;;
23001;SDS011;11667;51.706;4.856;2023-05-20T03:26:23;13.90;;;5.58;;
23001;SDS011;11667;51.706;4.856;2023-05-20T03:28:52;9.68;;;5.00;;
23001;SDS011;11667;51.706;4.856;2023-05-20T03:31:23;8.75;;;5.03;;
23001;SDS011;11667;51.706;4.856;2023-05-20T03:33:53;10.25;;;5.03;;
23001;SDS011;11667;51.706;4.856;2023-05-20T03:36:22;9.40;;;5.05;;
23001;SDS011;11667;51.706;4.856;2023-05-20T03:38:52;10.75;;;5.22;;
23001;SDS011;11667;51.706;4.856;2023-05-20T03:41:21;12.25;;;4.85;;
23001;SDS011;11667;51.706;4.856;2023-05-20T03:43:51;10.18;;;5.00;;
23001;SDS011;11667;51.706;4.856;2023-05-20T03:46:20;12.55;;;5.50;;
23001;SDS011;11667;51.706;4.856;2023-05-20T03:48:50;11.35;;;5.08;;
23001;SDS011;11667;51.706;4.856;2023-05-20T03:51:19;9.48;;;4.95;;
23001;SDS011;11667;51.706;4.856;2023-05-20T03:53:49;9.93;;;4.70;;
23001;SDS011;11667;51.706;4.856;2023-05-20T03:56:19;10.13;;;4.87;;
23001;SDS011;11667;51.706;4.856;2023-05-20T03:58:48;10.25;;;5.05;;
23001;SDS011;11667;51.706;4.856;2023-05-20T04:01:18;14.18;;;5.05;;
23001;SDS011;11667;51.706;4.856;2023-05-20T04:03:47;15.10;;;5.50;;
23001;SDS011;11667;51.706;4.856;2023-05-20T04:06:17;10.98;;;5.12;;
23001;SDS011;11667;51.706;4.856;2023-05-20T04:08:47;9.05;;;4.67;;
23001;SDS011;11667;51.706;4.856;2023-05-20T04:11:18;10.58;;;4.97;;
23001;SDS011;11667;51.706;4.856;2023-05-20T04:13:48;10.78;;;5.30;;
23001;SDS011;11667;51.706;4.856;2023-05-20T04:16:17;11.60;;;5.10;;
23001;SDS011;11667;51.706;4.856;2023-05-20T04:18:47;11.68;;;5.10;;
23001;SDS011;11667;51.706;4.856;2023-05-20T04:21:18;10.18;;;5.17;;
23001;SDS011;11667;51.706;4.856;2023-05-20T04:23:47;14.20;;;5.12;;
23001;SDS011;11667;51.706;4.856;2023-05-20T04:26:17;9.35;;;5.33;;
23001;SDS011;11667;51.706;4.856;2023-05-20T04:28:47;8.60;;;4.95;;
23001;SDS011;11667;51.706;4.856;2023-05-20T04:31:16;12.20;;;5.40;;
23001;SDS011;11667;51.706;4.856;2023-05-20T04:33:47;11.53;;;5.10;;
23001;SDS011;11667;51.706;4.856;2023-05-20T04:36:17;8.63;;;4.95;;
23001;SDS011;11667;51.706;4.856;2023-05-20T04:38:47;9.80;;;5.10;;
23001;SDS011;11667;51.706;4.856;2023-05-20T04:41:18;11.30;;;5.35;;
23001;SDS011;11667;51.706;4.856;2023-05-20T04:43:48;9.35;;;5.08;;
23001;SDS011;11667;51.706;4.856;2023-05-20T04:46:18;9.83;;;5.50;;
23001;SDS011;11667;51.706;4.856;2023-05-20T04:48:47;10.23;;;4.78;;
23001;SDS011;11667;51.706;4.856;2023-05-20T04:51:17;10.30;;;5.10;;
23001;SDS011;11667;51.706;4.856;2023-05-20T04:53:47;9.68;;;5.03;;
23001;SDS011;11667;51.706;4.856;2023-05-20T04:56:17;9.10;;;4.85;;
23001;SDS011;11667;51.706;4.856;2023-05-20T04:58:48;9.53;;;4.97;;
23001;SDS011;11667;51.706;4.856;2023-05-20T05:01:18;10.88;;;5.50;;
23001;SDS011;11667;51.706;4.856;2023-05-20T05:03:48;8.00;;;4.58;;
23001;SDS011;11667;51.706;4.856;2023-05-20T05:06:17;11.30;;;5.20;;
23001;SDS011;11667;51.706;4.856;2023-05-20T05:08:47;9.28;;;5.00;;
23001;SDS011;11667;51.706;4.856;2023-05-20T05:11:16;8.95;;;4.60;;
23001;SDS011;11667;51.706;4.856;2023-05-20T05:13:46;7.78;;;4.78;;
23001;SDS011;11667;51.706;4.856;2023-05-20T05:16:17;8.23;;;4.75;;
23001;SDS011;11667;51.706;4.856;2023-05-20T05:18:47;8.85;;;4.75;;
23001;SDS011;11667;51.706;4.856;2023-05-20T05:21:16;8.40;;;4.78;;
23001;SDS011;11667;51.706;4.856;2023-05-20T05:23:46;7.53;;;4.30;;
23001;SDS011;11667;51.706;4.856;2023-05-20T05:26:16;8.70;;;4.62;;
23001;SDS011;11667;51.706;4.856;2023-05-20T05:28:46;7.70;;;4.03;;
23001;SDS011;11667;51.706;4.856;2023-05-20T05:31:16;9.13;;;4.53;;
23001;SDS011;11667;51.706;4.856;2023-05-20T05:33:46;8.45;;;4.85;;
23001;SDS011;11667;51.706;4.856;2023-05-20T05:36:15;9.65;;;4.42;;
23001;SDS011;11667;51.706;4.856;2023-05-20T05:38:45;8.25;;;4.33;;
23001;SDS011;11667;51.706;4.856;2023-05-20T05:41:14;9.38;;;4.35;;
23001;SDS011;11667;51.706;4.856;2023-05-20T05:43:44;10.93;;;4.20;;
23001;SDS011;11667;51.706;4.856;2023-05-20T05:46:14;9.50;;;4.55;;
23001;SDS011;11667;51.706;4.856;2023-05-20T05:48:43;7.90;;;4.40;;
23001;SDS011;11667;51.706;4.856;2023-05-20T05:51:14;8.23;;;4.30;;
23001;SDS011;11667;51.706;4.856;2023-05-20T05:53:45;7.37;;;4.28;;
23001;SDS011;11667;51.706;4.856;2023-05-20T05:56:15;9.40;;;4.22;;
23001;SDS011;11667;51.706;4.856;2023-05-20T05:58:44;10.25;;;4.28;;
23001;SDS011;11667;51.706;4.856;2023-05-20T06:01:15;10.63;;;4.33;;
23001;SDS011;11667;51.706;4.856;2023-05-20T06:03:44;7.35;;;4.25;;
23001;SDS011;11667;51.706;4.856;2023-05-20T06:06:14;8.38;;;4.22;;
23001;SDS011;11667;51.706;4.856;2023-05-20T06:08:44;6.87;;;4.35;;
23001;SDS011;11667;51.706;4.856;2023-05-20T06:11:14;8.80;;;3.92;;
23001;SDS011;11667;51.706;4.856;2023-05-20T06:13:45;7.70;;;4.10;;
23001;SDS011;11667;51.706;4.856;2023-05-20T06:16:15;6.65;;;3.80;;
23001;SDS011;11667;51.706;4.856;2023-05-20T06:18:44;6.67;;;4.12;;
23001;SDS011;11667;51.706;4.856;2023-05-20T06:21:17;7.10;;;4.00;;
23001;SDS011;11667;51.706;4.856;2023-05-20T06:23:47;8.45;;;4.35;;
23001;SDS011;11667;51.706;4.856;2023-05-20T06:26:17;8.80;;;4.17;;
23001;SDS011;11667;51.706;4.856;2023-05-20T06:28:46;6.85;;;4.10;;
23001;SDS011;11667;51.706;4.856;2023-05-20T06:31:16;7.67;;;4.25;;
23001;SDS011;11667;51.706;4.856;2023-05-20T06:33:47;10.50;;;4.17;;
23001;SDS011;11667;51.706;4.856;2023-05-20T06:36:16;6.37;;;4.20;;
23001;SDS011;11667;51.706;4.856;2023-05-20T06:38:46;7.05;;;4.20;;
23001;SDS011;11667;51.706;4.856;2023-05-20T06:41:16;6.35;;;4.30;;
23001;SDS011;11667;51.706;4.856;2023-05-20T06:43:45;6.72;;;4.15;;
23001;SDS011;11667;51.706;4.856;2023-05-20T06:46:18;7.45;;;4.92;;
23001;SDS011;11667;51.706;4.856;2023-05-20T06:48:49;8.40;;;4.50;;
23001;SDS011;11667;51.706;4.856;2023-05-20T06:51:19;6.78;;;3.98;;
23001;SDS011;11667;51.706;4.856;2023-05-20T06:53:49;8.15;;;3.90;;
23001;SDS011;11667;51.706;4.856;2023-05-20T06:56:19;7.55;;;4.50;;
23001;SDS011;11667;51.706;4.856;2023-05-20T06:58:48;7.53;;;4.25;;
23001;SDS011;11667;51.706;4.856;2023-05-20T07:01:18;7.03;;;4.17;;
23001;SDS011;11667;51.706;4.856;2023-05-20T07:03:48;6.62;;;4.22;;
23001;SDS011;11667;51.706;4.856;2023-05-20T07:06:18;8.95;;;4.30;;
23001;SDS011;11667;51.706;4.856;2023-05-20T07:08:47;8.03;;;4.35;;
23001;SDS011;11667;51.706;4.856;2023-05-20T07:11:18;6.12;;;4.10;;
23001;SDS011;11667;51.706;4.856;2023-05-20T07:13:48;8.58;;;4.62;;
23001;SDS011;11667;51.706;4.856;2023-05-20T07:16:18;6.83;;;3.95;;
23001;SDS011;11667;51.706;4.856;2023-05-20T07:18:49;7.85;;;4.12;;
23001;SDS011;11667;51.706;4.856;2023-05-20T07:21:18;6.10;;;3.90;;
23001;SDS011;11667;51.706;4.856;2023-05-20T07:23:52;9.45;;;4.50;;
23001;SDS011;11667;51.706;4.856;2023-05-20T07:26:22;6.08;;;3.85;;
23001;SDS011;11667;51.706;4.856;2023-05-20T07:28:51;7.53;;;4.12;;
23001;SDS011;11667;51.706;4.856;2023-05-20T07:31:21;6.22;;;4.08;;
23001;SDS011;11667;51.706;4.856;2023-05-20T07:33:51;7.58;;;4.40;;
23001;SDS011;11667;51.706;4.856;2023-05-20T07:36:24;7.47;;;4.10;;
23001;SDS011;11667;51.706;4.856;2023-05-20T07:38:55;7.83;;;4.00;;
23001;SDS011;11667;51.706;4.856;2023-05-20T07:41:26;5.65;;;3.90;;
23001;SDS011;11667;51.706;4.856;2023-05-20T07:43:56;6.87;;;3.60;;
23001;SDS011;11667;51.706;4.856;2023-05-20T07:46:26;7.20;;;4.03;;
23001;SDS011;11667;51.706;4.856;2023-05-20T07:48:55;6.67;;;3.60;;
23001;SDS011;11667;51.706;4.856;2023-05-20T07:51:25;5.78;;;3.70;;
23001;SDS011;11667;51.706;4.856;2023-05-20T07:53:55;5.47;;;3.50;;
23001;SDS011;11667;51.706;4.856;2023-05-20T07:56:25;6.70;;;3.90;;
23001;SDS011;11667;51.706;4.856;2023-05-20T07:58:56;12.07;;;5.28;;
23001;SDS011;11667;51.706;4.856;2023-05-20T08:01:29;5.03;;;3.72;;
23001;SDS011;11667;51.706;4.856;2023-05-20T08:03:58;6.15;;;3.55;;
23001;SDS011;11667;51.706;4.856;2023-05-20T08:06:28;5.25;;;3.40;;
23001;SDS011;11667;51.706;4.856;2023-05-20T08:09:00;7.42;;;3.35;;
23001;SDS011;11667;51.706;4.856;2023-05-20T08:14:01;5.70;;;3.62;;
23001;SDS011;11667;51.706;4.856;2023-05-20T08:16:32;4.87;;;3.50;;
23001;SDS011;11667;51.706;4.856;2023-05-20T08:19:04;7.35;;;3.25;;
23001;SDS011;11667;51.706;4.856;2023-05-20T08:21:33;4.85;;;3.15;;
23001;SDS011;11667;51.706;4.856;2023-05-20T08:24:03;6.28;;;3.33;;
23001;SDS011;11667;51.706;4.856;2023-05-20T08:26:34;4.40;;;3.10;;
23001;SDS011;11667;51.706;4.856;2023-05-20T08:29:04;3.90;;;2.72;;
23001;SDS011;11667;51.706;4.856;2023-05-20T08:31:35;4.87;;;3.00;;
23001;SDS011;11667;51.706;4.856;2023-05-20T08:34:05;4.08;;;2.70;;
23001;SDS011;11667;51.706;4.856;2023-05-20T08:36:35;4.03;;;2.50;;
23001;SDS011;11667;51.706;4.856;2023-05-20T08:39:04;7.45;;;3.20;;
23001;SDS011;11667;51.706;4.856;2023-05-20T08:41:34;3.62;;;2.40;;
23001;SDS011;11667;51.706;4.856;2023-05-20T08:44:05;5.00;;;2.83;;
23001;SDS011;11667;51.706;4.856;2023-05-20T08:46:39;4.85;;;2.42;;
23001;SDS011;11667;51.706;4.856;2023-05-20T08:49:09;3.25;;;2.37;;
23001;SDS011;11667;51.706;4.856;2023-05-20T08:51:38;3.52;;;2.60;;
23001;SDS011;11667;51.706;4.856;2023-05-20T08:54:09;4.20;;;2.33;;
23001;SDS011;11667;51.706;4.856;2023-05-20T08:56:39;10.23;;;3.42;;
23001;SDS011;11667;51.706;4.856;2023-05-20T08:59:09;3.50;;;2.25;;
23001;SDS011;11667;51.706;4.856;2023-05-20T09:01:40;5.17;;;2.40;;
23001;SDS011;11667;51.706;4.856;2023-05-20T09:04:12;3.45;;;2.00;;
23001;SDS011;11667;51.706;4.856;2023-05-20T09:06:42;5.70;;;2.95;;
23001;SDS011;11667;51.706;4.856;2023-05-20T09:09:15;5.45;;;2.72;;
23001;SDS011;11667;51.706;4.856;2023-05-20T09:11:44;4.30;;;2.20;;
23001;SDS011;11667;51.706;4.856;2023-05-20T09:14:14;4.30;;;1.95;;
23001;SDS011;11667;51.706;4.856;2023-05-20T09:16:43;4.33;;;1.80;;
23001;SDS011;11667;51.706;4.856;2023-05-20T09:19:12;2.72;;;1.80;;
23001;SDS011;11667;51.706;4.856;2023-05-20T09:21:42;2.25;;;1.80;;
23001;SDS011;11667;51.706;4.856;2023-05-20T09:24:11;2.92;;;1.80;;
23001;SDS011;11667;51.706;4.856;2023-05-20T09:26:41;2.62;;;1.72;;
23001;SDS011;11667;51.706;4.856;2023-05-20T09:29:10;2.60;;;1.98;;
23001;SDS011;11667;51.706;4.856;2023-05-20T09:31:40;3.22;;;1.50;;
23001;SDS011;11667;51.706;4.856;2023-05-20T09:34:11;4.37;;;1.70;;
23001;SDS011;11667;51.706;4.856;2023-05-20T09:36:41;4.83;;;1.87;;
23001;SDS011;11667;51.706;4.856;2023-05-20T09:39:13;3.50;;;2.12;;
23001;SDS011;11667;51.706;4.856;2023-05-20T09:41:48;4.00;;;1.72;;
23001;SDS011;11667;51.706;4.856;2023-05-20T09:44:16;3.70;;;1.60;;
23001;SDS011;11667;51.706;4.856;2023-05-20T09:46:46;2.08;;;1.65;;
23001;SDS011;11667;51.706;4.856;2023-05-20T09:49:16;3.72;;;1.85;;
23001;SDS011;11667;51.706;4.856;2023-05-20T09:51:45;5.83;;;1.87;;
23001;SDS011;11667;51.706;4.856;2023-05-20T09:54:17;5.28;;;1.72;;
23001;SDS011;11667;51.706;4.856;2023-05-20T09:56:47;6.42;;;1.70;;
23001;SDS011;11667;51.706;4.856;2023-05-20T09:59:17;9.90;;;1.82;;
23001;SDS011;11667;51.706;4.856;2023-05-20T10:01:49;3.77;;;2.17;;
23001;SDS011;11667;51.706;4.856;2023-05-20T10:04:19;3.52;;;1.70;;
23001;SDS011;11667;51.706;4.856;2023-05-20T10:12:18;1.87;;;1.57;;
23001;SDS011;11667;51.706;4.856;2023-05-20T10:15:16;4.72;;;1.75;;
23001;SDS011;11667;51.706;4.856;2023-05-20T10:20:29;2.67;;;1.50;;
23001;SDS011;11667;51.706;4.856;2023-05-20T10:22:58;2.50;;;1.60;;
23001;SDS011;11667;51.706;4.856;2023-05-20T10:25:28;2.30;;;1.45;;
23001;SDS011;11667;51.706;4.856;2023-05-20T10:28:05;2.02;;;1.50;;
23001;SDS011;11667;51.706;4.856;2023-05-20T10:30:48;1.95;;;1.40;;
23001;SDS011;11667;51.706;4.856;2023-05-20T10:33:15;3.70;;;1.70;;
23001;SDS011;11667;51.706;4.856;2023-05-20T10:35:48;2.00;;;1.62;;
23001;SDS011;11667;51.706;4.856;2023-05-20T10:38:20;2.85;;;1.70;;
23001;SDS011;11667;51.706;4.856;2023-05-20T10:40:51;2.25;;;1.65;;
23001;SDS011;11667;51.706;4.856;2023-05-20T10:43:26;2.25;;;1.62;;
23001;SDS011;11667;51.706;4.856;2023-05-20T10:45:56;3.30;;;1.70;;
23001;SDS011;11667;51.706;4.856;2023-05-20T10:48:29;2.98;;;2.00;;
23001;SDS011;11667;51.706;4.856;2023-05-20T10:51:00;2.27;;;1.75;;
23001;SDS011;11667;51.706;4.856;2023-05-20T10:53:40;3.40;;;1.87;;
23001;SDS011;11667;51.706;4.856;2023-05-20T10:56:17;3.58;;;1.55;;
23001;SDS011;11667;51.706;4.856;2023-05-20T10:58:51;2.52;;;1.60;;
23001;SDS011;11667;51.706;4.856;2023-05-20T11:01:23;2.53;;;1.70;;
23001;SDS011;11667;51.706;4.856;2023-05-20T11:03:54;2.00;;;1.30;;
23001;SDS011;11667;51.706;4.856;2023-05-20T11:06:26;3.35;;;2.12;;
23001;SDS011;11667;51.706;4.856;2023-05-20T11:09:02;5.83;;;1.80;;
23001;SDS011;11667;51.706;4.856;2023-05-20T11:11:28;2.30;;;1.60;;
23001;SDS011;11667;51.706;4.856;2023-05-20T11:13:58;2.80;;;1.45;;
23001;SDS011;11667;51.706;4.856;2023-05-20T11:16:27;7.28;;;1.60;;
23001;SDS011;11667;51.706;4.856;2023-05-20T11:18:57;3.10;;;1.80;;
23001;SDS011;11667;51.706;4.856;2023-05-20T11:21:26;2.85;;;1.60;;
23001;SDS011;11667;51.706;4.856;2023-05-20T11:23:56;2.60;;;1.60;;
23001;SDS011;11667;51.706;4.856;2023-05-20T11:26:25;1.35;;;1.20;;
23001;SDS011;11667;51.706;4.856;2023-05-20T11:28:54;2.40;;;1.47;;
23001;SDS011;11667;51.706;4.856;2023-05-20T11:31:26;2.70;;;1.70;;
23001;SDS011;11667;51.706;4.856;2023-05-20T11:33:56;3.27;;;1.47;;
23001;SDS011;11667;51.706;4.856;2023-05-20T11:36:29;4.33;;;1.67;;
23001;SDS011;11667;51.706;4.856;2023-05-20T11:38:59;2.10;;;1.72;;
23001;SDS011;11667;51.706;4.856;2023-05-20T11:41:28;1.92;;;1.30;;
23001;SDS011;11667;51.706;4.856;2023-05-20T11:43:58;2.12;;;1.70;;
23001;SDS011;11667;51.706;4.856;2023-05-20T11:46:28;2.27;;;1.77;;
23001;SDS011;11667;51.706;4.856;2023-05-20T11:48:57;2.35;;;1.70;;
23001;SDS011;11667;51.706;4.856;2023-05-20T11:51:27;2.55;;;2.08;;
23001;SDS011;11667;51.706;4.856;2023-05-20T11:54:00;4.47;;;2.20;;
23001;SDS011;11667;51.706;4.856;2023-05-20T11:56:34;1.70;;;1.40;;
23001;SDS011;11667;51.706;4.856;2023-05-20T11:59:05;2.62;;;1.82;;
23001;SDS011;11667;51.706;4.856;2023-05-20T12:01:36;2.08;;;1.47;;
23001;SDS011;11667;51.706;4.856;2023-05-20T12:04:11;2.08;;;1.40;;
23001;SDS011;11667;51.706;4.856;2023-05-20T12:06:42;2.65;;;1.60;;
23001;SDS011;11667;51.706;4.856;2023-05-20T12:09:11;2.85;;;1.70;;
23001;SDS011;11667;51.706;4.856;2023-05-20T12:11:41;2.77;;;1.50;;
23001;SDS011;11667;51.706;4.856;2023-05-20T12:14:11;2.47;;;1.57;;
23001;SDS011;11667;51.706;4.856;2023-05-20T12:16:41;3.00;;;1.90;;
23001;SDS011;11667;51.706;4.856;2023-05-20T12:19:10;3.05;;;1.70;;
23001;SDS011;11667;51.706;4.856;2023-05-20T12:21:39;2.58;;;1.80;;
23001;SDS011;11667;51.706;4.856;2023-05-20T12:24:09;3.45;;;1.60;;
23001;SDS011;11667;51.706;4.856;2023-05-20T12:26:38;2.15;;;1.62;;
23001;SDS011;11667;51.706;4.856;2023-05-20T12:29:08;2.70;;;1.77;;
23001;SDS011;11667;51.706;4.856;2023-05-20T12:31:37;2.70;;;1.80;;
23001;SDS011;11667;51.706;4.856;2023-05-20T12:34:06;3.62;;;1.92;;
23001;SDS011;11667;51.706;4.856;2023-05-20T12:36:36;3.30;;;1.80;;
23001;SDS011;11667;51.706;4.856;2023-05-20T12:39:05;3.25;;;1.90;;
23001;SDS011;11667;51.706;4.856;2023-05-20T12:41:36;2.20;;;1.87;;
23001;SDS011;11667;51.706;4.856;2023-05-20T12:44:05;2.92;;;1.80;;
23001;SDS011;11667;51.706;4.856;2023-05-20T12:46:35;4.67;;;1.92;;
23001;SDS011;11667;51.706;4.856;2023-05-20T12:49:05;2.62;;;2.05;;
23001;SDS011;11667;51.706;4.856;2023-05-20T12:51:34;6.92;;;1.92;;
23001;SDS011;11667;51.706;4.856;2023-05-20T12:54:04;3.05;;;2.05;;
23001;SDS011;11667;51.706;4.856;2023-05-20T12:56:34;2.75;;;1.90;;
23001;SDS011;11667;51.706;4.856;2023-05-20T12:59:03;3.27;;;1.80;;
23001;SDS011;11667;51.706;4.856;2023-05-20T13:01:33;3.70;;;2.00;;
23001;SDS011;11667;51.706;4.856;2023-05-20T13:04:03;3.33;;;2.08;;
23001;SDS011;11667;51.706;4.856;2023-05-20T13:06:32;1.75;;;1.50;;
23001;SDS011;11667;51.706;4.856;2023-05-20T13:09:02;3.83;;;1.80;;
23001;SDS011;11667;51.706;4.856;2023-05-20T13:11:31;3.22;;;1.90;;
23001;SDS011;11667;51.706;4.856;2023-05-20T13:14:01;3.02;;;1.92;;
23001;SDS011;11667;51.706;4.856;2023-05-20T13:16:31;2.65;;;2.00;;
23001;SDS011;11667;51.706;4.856;2023-05-20T13:19:00;2.75;;;1.70;;
23001;SDS011;11667;51.706;4.856;2023-05-20T13:21:29;3.42;;;2.10;;
23001;SDS011;11667;51.706;4.856;2023-05-20T13:23:59;2.35;;;1.60;;
23001;SDS011;11667;51.706;4.856;2023-05-20T13:26:28;2.33;;;1.77;;
23001;SDS011;11667;51.706;4.856;2023-05-20T13:28:58;2.65;;;1.72;;
23001;SDS011;11667;51.706;4.856;2023-05-20T13:31:28;3.80;;;2.30;;
23001;SDS011;11667;51.706;4.856;2023-05-20T13:33:57;3.42;;;2.10;;
23001;SDS011;11667;51.706;4.856;2023-05-20T13:36:27;3.70;;;2.20;;
23001;SDS011;11667;51.706;4.856;2023-05-20T13:38:57;2.20;;;1.77;;
23001;SDS011;11667;51.706;4.856;2023-05-20T13:41:27;2.45;;;1.50;;
23001;SDS011;11667;51.706;4.856;2023-05-20T13:43:57;2.17;;;1.60;;
23001;SDS011;11667;51.706;4.856;2023-05-20T13:46:27;4.12;;;1.95;;
23001;SDS011;11667;51.706;4.856;2023-05-20T13:48:56;3.72;;;2.00;;
23001;SDS011;11667;51.706;4.856;2023-05-20T13:51:26;2.98;;;1.75;;
23001;SDS011;11667;51.706;4.856;2023-05-20T13:53:55;2.20;;;1.60;;
23001;SDS011;11667;51.706;4.856;2023-05-20T13:56:25;3.55;;;1.75;;
23001;SDS011;11667;51.706;4.856;2023-05-20T13:58:54;2.27;;;1.80;;
23001;SDS011;11667;51.706;4.856;2023-05-20T14:01:24;2.52;;;1.70;;
23001;SDS011;11667;51.706;4.856;2023-05-20T14:03:55;3.22;;;1.60;;
23001;SDS011;11667;51.706;4.856;2023-05-20T14:06:25;29.75;;;4.58;;
23001;SDS011;11667;51.706;4.856;2023-05-20T14:08:56;5.55;;;2.00;;
23001;SDS011;11667;51.706;4.856;2023-05-20T14:11:25;2.35;;;1.70;;
23001;SDS011;11667;51.706;4.856;2023-05-20T14:13:55;5.20;;;1.80;;
23001;SDS011;11667;51.706;4.856;2023-05-20T14:16:24;3.98;;;1.67;;
23001;SDS011;11667;51.706;4.856;2023-05-20T14:18:54;6.65;;;2.10;;
23001;SDS011;11667;51.706;4.856;2023-05-20T14:21:23;2.00;;;1.40;;
23001;SDS011;11667;51.706;4.856;2023-05-20T14:23:53;1.95;;;1.65;;
23001;SDS011;11667;51.706;4.856;2023-05-20T14:26:23;2.50;;;1.60;;
23001;SDS011;11667;51.706;4.856;2023-05-20T14:28:52;3.35;;;1.50;;
23001;SDS011;11667;51.706;4.856;2023-05-20T14:31:21;2.50;;;1.50;;
23001;SDS011;11667;51.706;4.856;2023-05-20T14:33:51;2.27;;;1.55;;
23001;SDS011;11667;51.706;4.856;2023-05-20T14:36:20;2.50;;;1.50;;
23001;SDS011;11667;51.706;4.856;2023-05-20T14:38:50;3.10;;;1.50;;
23001;SDS011;11667;51.706;4.856;2023-05-20T14:41:19;2.20;;;1.60;;
23001;SDS011;11667;51.706;4.856;2023-05-20T14:43:49;2.67;;;1.62;;
23001;SDS011;11667;51.706;4.856;2023-05-20T14:46:18;2.33;;;1.50;;
23001;SDS011;11667;51.706;4.856;2023-05-20T14:48:48;4.80;;;2.02;;
23001;SDS011;11667;51.706;4.856;2023-05-20T14:51:18;2.50;;;1.70;;
23001;SDS011;11667;51.706;4.856;2023-05-20T14:53:47;2.22;;;1.67;;
23001;SDS011;11667;51.706;4.856;2023-05-20T14:56:17;2.40;;;1.70;;
23001;SDS011;11667;51.706;4.856;2023-05-20T14:58:46;2.22;;;1.50;;
23001;SDS011;11667;51.706;4.856;2023-05-20T15:01:16;2.35;;;1.72;;
23001;SDS011;11667;51.706;4.856;2023-05-20T15:03:45;2.52;;;1.50;;
23001;SDS011;11667;51.706;4.856;2023-05-20T15:06:15;2.75;;;1.67;;
23001;SDS011;11667;51.706;4.856;2023-05-20T15:08:44;2.30;;;1.60;;
23001;SDS011;11667;51.706;4.856;2023-05-20T15:11:14;1.90;;;1.40;;
23001;SDS011;11667;51.706;4.856;2023-05-20T15:13:43;2.12;;;1.70;;